Marlinton, West Virginia
Current Conditions -  °F | °C
As of 11:55 PM on Wednesday 22 Oct 2014 (Local Time) from KHSP Reporting Station
Overcast Overcast  
Wind Chill: 31°   Ceiling: 800
Heat Index: 39°   Visibility: 10mi
Dew Point: 37°   Wind: 16mph
Humidity: 91%   Direction: 300°WNW
Pressure: 30.04"   Gusts: 22mph
Location:  38.22°N, 80.09°W
Report Text: KHSP 230355Z AUTO 30014G19KT 10SM OVC008 04/03 A3004 RMK AO2 T00410028
Loading
Personal Weather Stations






























Interactive Weather Map New forecast layout! Learn more

10-Day Weather Forecast

Advertisements
Track Severe Weather on mobile